sensor_id;sensor_type;location;lat;lon;timestamp;temperature;humidity
22436;DHT22;11385;50.822;4.324;2022-08-03T00:01:48;24.10;99.90
22436;DHT22;11385;50.822;4.324;2022-08-03T00:04:15;24.30;99.90
22436;DHT22;11385;50.822;4.324;2022-08-03T00:06:43;24.30;99.90
22436;DHT22;11385;50.822;4.324;2022-08-03T00:09:10;24.30;99.90
22436;DHT22;11385;50.822;4.324;2022-08-03T00:11:37;24.40;99.90
22436;DHT22;11385;50.822;4.324;2022-08-03T00:14:05;24.30;99.90
22436;DHT22;11385;50.822;4.324;2022-08-03T00:16:32;24.10;99.90
22436;DHT22;11385;50.822;4.324;2022-08-03T00:19:00;24.10;99.90
22436;DHT22;11385;50.822;4.324;2022-08-03T00:21:28;24.00;99.90
22436;DHT22;11385;50.822;4.324;2022-08-03T00:23:55;24.10;99.90
22436;DHT22;11385;50.822;4.324;2022-08-03T00:26:22;24.20;99.90
22436;DHT22;11385;50.822;4.324;2022-08-03T00:28:51;24.20;99.90
22436;DHT22;11385;50.822;4.324;2022-08-03T00:31:17;24.00;99.90
22436;DHT22;11385;50.822;4.324;2022-08-03T00:33:44;23.80;99.90
22436;DHT22;11385;50.822;4.324;2022-08-03T00:36:11;23.90;99.90
22436;DHT22;11385;50.822;4.324;2022-08-03T00:38:37;23.90;99.90
22436;DHT22;11385;50.822;4.324;2022-08-03T00:41:04;23.80;99.90
22436;DHT22;11385;50.822;4.324;2022-08-03T00:43:30;23.80;99.90
22436;DHT22;11385;50.822;4.324;2022-08-03T00:45:57;23.90;99.90
22436;DHT22;11385;50.822;4.324;2022-08-03T00:48:24;23.90;99.90
22436;DHT22;11385;50.822;4.324;2022-08-03T00:50:50;23.90;99.90
22436;DHT22;11385;50.822;4.324;2022-08-03T00:53:18;23.80;99.90
22436;DHT22;11385;50.822;4.324;2022-08-03T00:55:45;23.70;99.90
22436;DHT22;11385;50.822;4.324;2022-08-03T00:58:12;23.70;99.90
22436;DHT22;11385;50.822;4.324;2022-08-03T01:00:41;23.60;99.90
22436;DHT22;11385;50.822;4.324;2022-08-03T01:03:09;23.60;99.90
22436;DHT22;11385;50.822;4.324;2022-08-03T01:08:21;23.30;99.90
22436;DHT22;11385;50.822;4.324;2022-08-03T01:11:10;23.30;99.90
22436;DHT22;11385;50.822;4.324;2022-08-03T01:13:42;23.30;99.90
22436;DHT22;11385;50.822;4.324;2022-08-03T01:16:14;23.30;99.90
22436;DHT22;11385;50.822;4.324;2022-08-03T01:18:45;23.20;99.90
22436;DHT22;11385;50.822;4.324;2022-08-03T01:21:19;23.00;99.90
22436;DHT22;11385;50.822;4.324;2022-08-03T01:23:58;23.10;99.90
22436;DHT22;11385;50.822;4.324;2022-08-03T01:31:50;23.20;99.90
22436;DHT22;11385;50.822;4.324;2022-08-03T01:34:18;23.10;99.90
22436;DHT22;11385;50.822;4.324;2022-08-03T01:36:50;23.20;99.90
22436;DHT22;11385;50.822;4.324;2022-08-03T01:39:18;23.10;99.90
22436;DHT22;11385;50.822;4.324;2022-08-03T01:42:05;23.00;99.90
22436;DHT22;11385;50.822;4.324;2022-08-03T01:44:19;23.00;99.90
22436;DHT22;11385;50.822;4.324;2022-08-03T01:46:47;22.80;99.90
22436;DHT22;11385;50.822;4.324;2022-08-03T01:49:17;22.90;99.90
22436;DHT22;11385;50.822;4.324;2022-08-03T01:51:44;22.80;99.90
22436;DHT22;11385;50.822;4.324;2022-08-03T01:54:13;22.80;99.90
22436;DHT22;11385;50.822;4.324;2022-08-03T01:56:42;22.80;99.90
22436;DHT22;11385;50.822;4.324;2022-08-03T01:59:09;22.70;99.90
22436;DHT22;11385;50.822;4.324;2022-08-03T02:01:37;22.60;99.90
22436;DHT22;11385;50.822;4.324;2022-08-03T02:04:06;22.50;99.90
22436;DHT22;11385;50.822;4.324;2022-08-03T02:06:35;22.60;99.90
22436;DHT22;11385;50.822;4.324;2022-08-03T02:09:03;22.60;99.90
22436;DHT22;11385;50.822;4.324;2022-08-03T02:11:32;22.60;99.90
22436;DHT22;11385;50.822;4.324;2022-08-03T02:14:03;22.60;99.90
22436;DHT22;11385;50.822;4.324;2022-08-03T02:16:32;22.60;99.90
22436;DHT22;11385;50.822;4.324;2022-08-03T02:19:02;22.60;99.90
22436;DHT22;11385;50.822;4.324;2022-08-03T02:21:31;22.50;99.90
22436;DHT22;11385;50.822;4.324;2022-08-03T02:23:59;22.50;99.90
22436;DHT22;11385;50.822;4.324;2022-08-03T02:26:28;22.50;99.90
22436;DHT22;11385;50.822;4.324;2022-08-03T02:28:57;22.50;99.90
22436;DHT22;11385;50.822;4.324;2022-08-03T02:31:27;22.40;99.90
22436;DHT22;11385;50.822;4.324;2022-08-03T02:34:00;22.40;99.90
22436;DHT22;11385;50.822;4.324;2022-08-03T02:36:29;22.40;99.90
22436;DHT22;11385;50.822;4.324;2022-08-03T02:38:59;22.40;99.90
22436;DHT22;11385;50.822;4.324;2022-08-03T02:41:34;22.40;99.90
22436;DHT22;11385;50.822;4.324;2022-08-03T02:44:04;22.40;99.90
22436;DHT22;11385;50.822;4.324;2022-08-03T02:46:34;22.30;99.90
22436;DHT22;11385;50.822;4.324;2022-08-03T02:49:03;22.30;99.90
22436;DHT22;11385;50.822;4.324;2022-08-03T02:51:32;22.20;99.90
22436;DHT22;11385;50.822;4.324;2022-08-03T02:54:01;22.10;99.90
22436;DHT22;11385;50.822;4.324;2022-08-03T02:56:29;22.10;99.90
22436;DHT22;11385;50.822;4.324;2022-08-03T02:58:57;22.20;99.90
22436;DHT22;11385;50.822;4.324;2022-08-03T03:01:26;22.10;99.90
22436;DHT22;11385;50.822;4.324;2022-08-03T03:03:55;22.00;99.90
22436;DHT22;11385;50.822;4.324;2022-08-03T03:06:24;22.00;99.90
22436;DHT22;11385;50.822;4.324;2022-08-03T03:08:52;21.90;99.90
22436;DHT22;11385;50.822;4.324;2022-08-03T03:11:21;21.80;99.90
22436;DHT22;11385;50.822;4.324;2022-08-03T03:13:50;21.90;99.90
22436;DHT22;11385;50.822;4.324;2022-08-03T03:16:17;21.90;99.90
22436;DHT22;11385;50.822;4.324;2022-08-03T03:18:46;21.90;99.90
22436;DHT22;11385;50.822;4.324;2022-08-03T03:21:18;21.90;99.90
22436;DHT22;11385;50.822;4.324;2022-08-03T03:23:45;21.90;99.90
22436;DHT22;11385;50.822;4.324;2022-08-03T03:26:13;21.90;99.90
22436;DHT22;11385;50.822;4.324;2022-08-03T03:28:40;21.80;99.90
22436;DHT22;11385;50.822;4.324;2022-08-03T03:31:08;21.80;99.90
22436;DHT22;11385;50.822;4.324;2022-08-03T03:33:37;21.70;99.90
22436;DHT22;11385;50.822;4.324;2022-08-03T03:36:05;21.80;99.90
22436;DHT22;11385;50.822;4.324;2022-08-03T03:38:33;21.80;99.90
22436;DHT22;11385;50.822;4.324;2022-08-03T03:41:01;21.70;99.90
22436;DHT22;11385;50.822;4.324;2022-08-03T03:43:28;21.70;99.90
22436;DHT22;11385;50.822;4.324;2022-08-03T03:45:56;21.80;99.90
22436;DHT22;11385;50.822;4.324;2022-08-03T03:48:24;21.70;99.90
22436;DHT22;11385;50.822;4.324;2022-08-03T03:50:52;21.70;99.90
22436;DHT22;11385;50.822;4.324;2022-08-03T03:53:19;21.60;99.90
22436;DHT22;11385;50.822;4.324;2022-08-03T03:55:46;21.60;99.90
22436;DHT22;11385;50.822;4.324;2022-08-03T03:58:12;21.70;99.90
22436;DHT22;11385;50.822;4.324;2022-08-03T04:00:39;21.60;99.90
22436;DHT22;11385;50.822;4.324;2022-08-03T04:03:09;21.60;99.90
22436;DHT22;11385;50.822;4.324;2022-08-03T04:05:37;21.50;99.90
22436;DHT22;11385;50.822;4.324;2022-08-03T04:08:14;21.50;99.90
22436;DHT22;11385;50.822;4.324;2022-08-03T04:10:55;21.60;99.90
22436;DHT22;11385;50.822;4.324;2022-08-03T04:13:26;21.30;99.90
22436;DHT22;11385;50.822;4.324;2022-08-03T04:15:54;21.40;99.90
22436;DHT22;11385;50.822;4.324;2022-08-03T04:18:21;21.40;99.90
22436;DHT22;11385;50.822;4.324;2022-08-03T04:20:50;21.30;99.90
22436;DHT22;11385;50.822;4.324;2022-08-03T04:23:19;21.30;99.90
22436;DHT22;11385;50.822;4.324;2022-08-03T04:25:48;21.30;99.90
22436;DHT22;11385;50.822;4.324;2022-08-03T04:28:16;21.30;99.90
22436;DHT22;11385;50.822;4.324;2022-08-03T04:30:46;21.20;99.90
22436;DHT22;11385;50.822;4.324;2022-08-03T04:33:16;21.30;99.90
22436;DHT22;11385;50.822;4.324;2022-08-03T04:35:45;21.40;99.90
22436;DHT22;11385;50.822;4.324;2022-08-03T04:38:14;21.30;99.90
22436;DHT22;11385;50.822;4.324;2022-08-03T04:40:43;21.30;99.90
22436;DHT22;11385;50.822;4.324;2022-08-03T04:43:12;21.40;99.90
22436;DHT22;11385;50.822;4.324;2022-08-03T04:45:40;21.40;99.90
22436;DHT22;11385;50.822;4.324;2022-08-03T04:48:08;21.30;99.90
22436;DHT22;11385;50.822;4.324;2022-08-03T04:50:34;21.30;99.90
22436;DHT22;11385;50.822;4.324;2022-08-03T04:53:04;21.30;99.90
22436;DHT22;11385;50.822;4.324;2022-08-03T04:55:32;21.20;99.90
22436;DHT22;11385;50.822;4.324;2022-08-03T04:58:00;21.30;99.90
22436;DHT22;11385;50.822;4.324;2022-08-03T05:00:27;21.30;99.90
22436;DHT22;11385;50.822;4.324;2022-08-03T05:02:55;21.40;99.90
22436;DHT22;11385;50.822;4.324;2022-08-03T05:05:22;21.50;99.90
22436;DHT22;11385;50.822;4.324;2022-08-03T05:07:49;21.50;99.90
22436;DHT22;11385;50.822;4.324;2022-08-03T05:10:16;21.40;99.90
22436;DHT22;11385;50.822;4.324;2022-08-03T05:12:44;21.40;99.90
22436;DHT22;11385;50.822;4.324;2022-08-03T05:15:11;21.50;99.90
22436;DHT22;11385;50.822;4.324;2022-08-03T05:17:38;21.50;99.90
22436;DHT22;11385;50.822;4.324;2022-08-03T05:20:05;21.40;99.90
22436;DHT22;11385;50.822;4.324;2022-08-03T05:22:32;21.40;99.90
22436;DHT22;11385;50.822;4.324;2022-08-03T05:25:00;21.40;99.90
22436;DHT22;11385;50.822;4.324;2022-08-03T05:27:27;21.30;99.90
22436;DHT22;11385;50.822;4.324;2022-08-03T05:29:53;21.30;99.90
22436;DHT22;11385;50.822;4.324;2022-08-03T05:32:20;21.30;99.90
22436;DHT22;11385;50.822;4.324;2022-08-03T05:34:49;21.40;99.90
22436;DHT22;11385;50.822;4.324;2022-08-03T05:37:15;21.50;99.90
22436;DHT22;11385;50.822;4.324;2022-08-03T05:39:42;21.50;99.90
22436;DHT22;11385;50.822;4.324;2022-08-03T05:42:08;21.50;99.90
22436;DHT22;11385;50.822;4.324;2022-08-03T05:44:35;21.50;99.90
22436;DHT22;11385;50.822;4.324;2022-08-03T05:47:05;21.50;99.90
22436;DHT22;11385;50.822;4.324;2022-08-03T05:49:32;21.60;99.90
22436;DHT22;11385;50.822;4.324;2022-08-03T05:51:58;21.50;99.90
22436;DHT22;11385;50.822;4.324;2022-08-03T05:54:25;21.50;99.90
22436;DHT22;11385;50.822;4.324;2022-08-03T05:56:52;21.60;99.90
22436;DHT22;11385;50.822;4.324;2022-08-03T05:59:18;21.70;99.90
22436;DHT22;11385;50.822;4.324;2022-08-03T06:01:46;21.70;99.90
22436;DHT22;11385;50.822;4.324;2022-08-03T06:04:13;21.80;99.90
22436;DHT22;11385;50.822;4.324;2022-08-03T06:06:40;21.80;99.90
22436;DHT22;11385;50.822;4.324;2022-08-03T06:09:07;21.90;99.90
22436;DHT22;11385;50.822;4.324;2022-08-03T06:11:36;21.90;99.90
22436;DHT22;11385;50.822;4.324;2022-08-03T06:14:03;22.00;99.90
22436;DHT22;11385;50.822;4.324;2022-08-03T06:16:29;22.10;99.90
22436;DHT22;11385;50.822;4.324;2022-08-03T06:18:57;22.20;99.90
22436;DHT22;11385;50.822;4.324;2022-08-03T06:21:23;22.20;99.90
22436;DHT22;11385;50.822;4.324;2022-08-03T06:23:50;22.20;99.90
22436;DHT22;11385;50.822;4.324;2022-08-03T06:26:17;22.30;99.90
22436;DHT22;11385;50.822;4.324;2022-08-03T06:28:44;22.20;99.90
22436;DHT22;11385;50.822;4.324;2022-08-03T06:31:11;22.30;99.90
22436;DHT22;11385;50.822;4.324;2022-08-03T06:33:37;22.30;99.90
22436;DHT22;11385;50.822;4.324;2022-08-03T06:36:05;22.30;99.90
22436;DHT22;11385;50.822;4.324;2022-08-03T06:38:32;22.40;99.90
22436;DHT22;11385;50.822;4.324;2022-08-03T06:40:58;22.50;99.90
22436;DHT22;11385;50.822;4.324;2022-08-03T06:43:25;22.30;99.90
22436;DHT22;11385;50.822;4.324;2022-08-03T06:45:52;22.30;99.90
22436;DHT22;11385;50.822;4.324;2022-08-03T06:48:19;22.50;99.90
22436;DHT22;11385;50.822;4.324;2022-08-03T06:50:46;22.50;99.90
22436;DHT22;11385;50.822;4.324;2022-08-03T06:53:13;22.60;99.90
22436;DHT22;11385;50.822;4.324;2022-08-03T06:55:40;22.70;99.90
22436;DHT22;11385;50.822;4.324;2022-08-03T06:58:06;22.70;99.90
22436;DHT22;11385;50.822;4.324;2022-08-03T07:00:33;22.70;99.90
22436;DHT22;11385;50.822;4.324;2022-08-03T07:03:00;22.50;99.90
22436;DHT22;11385;50.822;4.324;2022-08-03T07:05:26;22.60;99.90
22436;DHT22;11385;50.822;4.324;2022-08-03T07:07:55;22.70;99.90
22436;DHT22;11385;50.822;4.324;2022-08-03T07:10:22;22.90;99.90
22436;DHT22;11385;50.822;4.324;2022-08-03T07:12:49;22.90;99.90
22436;DHT22;11385;50.822;4.324;2022-08-03T07:15:16;23.00;99.90
22436;DHT22;11385;50.822;4.324;2022-08-03T07:17:44;23.10;99.90
22436;DHT22;11385;50.822;4.324;2022-08-03T07:20:11;23.20;99.90
22436;DHT22;11385;50.822;4.324;2022-08-03T07:22:39;23.30;99.90
22436;DHT22;11385;50.822;4.324;2022-08-03T07:25:06;23.30;99.90
22436;DHT22;11385;50.822;4.324;2022-08-03T07:27:33;23.40;99.90
22436;DHT22;11385;50.822;4.324;2022-08-03T07:30:00;23.40;99.90
22436;DHT22;11385;50.822;4.324;2022-08-03T07:32:27;23.40;99.90
22436;DHT22;11385;50.822;4.324;2022-08-03T07:34:56;23.40;99.90
22436;DHT22;11385;50.822;4.324;2022-08-03T07:37:22;23.60;99.90
22436;DHT22;11385;50.822;4.324;2022-08-03T07:39:49;23.60;99.90
22436;DHT22;11385;50.822;4.324;2022-08-03T07:42:16;23.80;99.90
22436;DHT22;11385;50.822;4.324;2022-08-03T07:44:43;24.00;99.90
22436;DHT22;11385;50.822;4.324;2022-08-03T07:47:10;23.90;99.90
22436;DHT22;11385;50.822;4.324;2022-08-03T07:49:39;24.10;99.90
22436;DHT22;11385;50.822;4.324;2022-08-03T07:52:06;24.10;99.90
22436;DHT22;11385;50.822;4.324;2022-08-03T07:54:38;24.30;99.90
22436;DHT22;11385;50.822;4.324;2022-08-03T07:57:05;24.30;99.90
22436;DHT22;11385;50.822;4.324;2022-08-03T07:59:32;24.40;99.90
22436;DHT22;11385;50.822;4.324;2022-08-03T08:02:00;24.40;99.90
22436;DHT22;11385;50.822;4.324;2022-08-03T08:04:26;24.40;99.90
22436;DHT22;11385;50.822;4.324;2022-08-03T08:06:53;24.50;99.90
22436;DHT22;11385;50.822;4.324;2022-08-03T08:09:20;24.60;99.90
22436;DHT22;11385;50.822;4.324;2022-08-03T08:11:48;24.80;99.90
22436;DHT22;11385;50.822;4.324;2022-08-03T08:14:15;24.70;99.90
22436;DHT22;11385;50.822;4.324;2022-08-03T08:16:42;24.90;99.90
22436;DHT22;11385;50.822;4.324;2022-08-03T08:19:08;24.90;99.90
22436;DHT22;11385;50.822;4.324;2022-08-03T08:21:35;25.10;99.90
22436;DHT22;11385;50.822;4.324;2022-08-03T08:24:01;25.20;99.90
22436;DHT22;11385;50.822;4.324;2022-08-03T08:26:28;25.30;99.90
22436;DHT22;11385;50.822;4.324;2022-08-03T08:28:55;25.20;99.90
22436;DHT22;11385;50.822;4.324;2022-08-03T08:31:21;25.20;99.90
22436;DHT22;11385;50.822;4.324;2022-08-03T08:33:48;25.20;99.90
22436;DHT22;11385;50.822;4.324;2022-08-03T08:36:15;25.40;99.90
22436;DHT22;11385;50.822;4.324;2022-08-03T08:38:42;25.40;99.90
22436;DHT22;11385;50.822;4.324;2022-08-03T08:41:10;25.60;99.90
22436;DHT22;11385;50.822;4.324;2022-08-03T08:43:37;25.80;99.90
22436;DHT22;11385;50.822;4.324;2022-08-03T08:46:04;25.80;99.90
22436;DHT22;11385;50.822;4.324;2022-08-03T08:48:35;25.90;99.90
22436;DHT22;11385;50.822;4.324;2022-08-03T08:51:04;25.90;99.90
22436;DHT22;11385;50.822;4.324;2022-08-03T08:53:34;26.10;99.90
22436;DHT22;11385;50.822;4.324;2022-08-03T08:56:03;26.30;99.90
22436;DHT22;11385;50.822;4.324;2022-08-03T08:58:36;26.10;99.90
22436;DHT22;11385;50.822;4.324;2022-08-03T09:01:04;26.10;99.90
22436;DHT22;11385;50.822;4.324;2022-08-03T09:03:32;26.20;99.90
22436;DHT22;11385;50.822;4.324;2022-08-03T09:06:00;26.50;99.90
22436;DHT22;11385;50.822;4.324;2022-08-03T09:08:29;26.60;99.90
22436;DHT22;11385;50.822;4.324;2022-08-03T09:10:56;26.70;99.90
22436;DHT22;11385;50.822;4.324;2022-08-03T09:13:23;26.70;99.90
22436;DHT22;11385;50.822;4.324;2022-08-03T09:18:28;27.00;99.90
22436;DHT22;11385;50.822;4.324;2022-08-03T09:21:11;27.00;99.90
22436;DHT22;11385;50.822;4.324;2022-08-03T09:23:42;27.00;99.90
22436;DHT22;11385;50.822;4.324;2022-08-03T09:25:58;27.00;99.90
22436;DHT22;11385;50.822;4.324;2022-08-03T09:28:32;27.10;99.90
22436;DHT22;11385;50.822;4.324;2022-08-03T09:30:58;27.20;99.90
22436;DHT22;11385;50.822;4.324;2022-08-03T09:33:25;27.30;99.90
22436;DHT22;11385;50.822;4.324;2022-08-03T09:35:51;27.40;99.90
22436;DHT22;11385;50.822;4.324;2022-08-03T09:38:23;27.50;99.90
22436;DHT22;11385;50.822;4.324;2022-08-03T09:40:51;27.30;99.90
22436;DHT22;11385;50.822;4.324;2022-08-03T09:43:19;27.30;99.90
22436;DHT22;11385;50.822;4.324;2022-08-03T09:45:46;27.50;99.90
22436;DHT22;11385;50.822;4.324;2022-08-03T09:48:22;27.60;99.90
22436;DHT22;11385;50.822;4.324;2022-08-03T09:50:52;27.80;99.90
22436;DHT22;11385;50.822;4.324;2022-08-03T09:53:19;27.80;99.90
22436;DHT22;11385;50.822;4.324;2022-08-03T09:55:55;28.00;99.90
22436;DHT22;11385;50.822;4.324;2022-08-03T09:58:24;28.10;99.90
22436;DHT22;11385;50.822;4.324;2022-08-03T10:00:54;28.10;99.90
22436;DHT22;11385;50.822;4.324;2022-08-03T10:03:23;28.20;99.90
22436;DHT22;11385;50.822;4.324;2022-08-03T10:05:50;28.10;99.90
22436;DHT22;11385;50.822;4.324;2022-08-03T10:08:18;28.30;99.90
22436;DHT22;11385;50.822;4.324;2022-08-03T10:10:47;28.40;99.90
22436;DHT22;11385;50.822;4.324;2022-08-03T10:13:17;28.50;99.90
22436;DHT22;11385;50.822;4.324;2022-08-03T10:15:45;28.50;99.90
22436;DHT22;11385;50.822;4.324;2022-08-03T10:18:12;28.60;99.90
22436;DHT22;11385;50.822;4.324;2022-08-03T10:20:49;28.40;99.90
22436;DHT22;11385;50.822;4.324;2022-08-03T10:23:17;28.60;99.90
22436;DHT22;11385;50.822;4.324;2022-08-03T10:25:47;28.60;99.90
22436;DHT22;11385;50.822;4.324;2022-08-03T10:28:17;28.90;99.90
22436;DHT22;11385;50.822;4.324;2022-08-03T10:30:47;28.80;99.90
22436;DHT22;11385;50.822;4.324;2022-08-03T10:33:19;29.10;99.90
22436;DHT22;11385;50.822;4.324;2022-08-03T10:35:50;29.20;99.90
22436;DHT22;11385;50.822;4.324;2022-08-03T10:38:22;29.30;99.90
22436;DHT22;11385;50.822;4.324;2022-08-03T10:40:52;29.10;99.90
22436;DHT22;11385;50.822;4.324;2022-08-03T10:43:26;29.10;99.90
22436;DHT22;11385;50.822;4.324;2022-08-03T10:45:54;29.20;99.90
22436;DHT22;11385;50.822;4.324;2022-08-03T10:48:21;29.40;99.90
22436;DHT22;11385;50.822;4.324;2022-08-03T10:50:48;29.50;99.90
22436;DHT22;11385;50.822;4.324;2022-08-03T10:53:32;29.40;99.90
22436;DHT22;11385;50.822;4.324;2022-08-03T10:55:46;29.60;99.90
22436;DHT22;11385;50.822;4.324;2022-08-03T11:00:57;29.80;99.90
22436;DHT22;11385;50.822;4.324;2022-08-03T11:03:25;29.70;99.90
22436;DHT22;11385;50.822;4.324;2022-08-03T11:05:52;29.60;99.90
22436;DHT22;11385;50.822;4.324;2022-08-03T11:08:23;29.50;99.90
22436;DHT22;11385;50.822;4.324;2022-08-03T11:10:53;29.50;99.90
22436;DHT22;11385;50.822;4.324;2022-08-03T11:13:22;29.80;99.90
22436;DHT22;11385;50.822;4.324;2022-08-03T11:15:52;29.90;99.90
22436;DHT22;11385;50.822;4.324;2022-08-03T11:18:19;30.10;99.90
22436;DHT22;11385;50.822;4.324;2022-08-03T11:20:50;30.20;99.90
22436;DHT22;11385;50.822;4.324;2022-08-03T11:23:51;30.20;99.90
22436;DHT22;11385;50.822;4.324;2022-08-03T11:26:13;30.20;99.90
22436;DHT22;11385;50.822;4.324;2022-08-03T11:28:41;30.30;99.90
22436;DHT22;11385;50.822;4.324;2022-08-03T11:31:42;30.40;99.90
22436;DHT22;11385;50.822;4.324;2022-08-03T11:34:03;30.50;99.90
22436;DHT22;11385;50.822;4.324;2022-08-03T11:39:13;30.50;99.90
22436;DHT22;11385;50.822;4.324;2022-08-03T11:41:40;30.70;99.90
22436;DHT22;11385;50.822;4.324;2022-08-03T11:44:08;30.60;99.90
22436;DHT22;11385;50.822;4.324;2022-08-03T11:46:37;30.50;99.90
22436;DHT22;11385;50.822;4.324;2022-08-03T11:49:06;30.50;99.90
22436;DHT22;11385;50.822;4.324;2022-08-03T11:51:34;30.60;99.90
22436;DHT22;11385;50.822;4.324;2022-08-03T11:54:05;30.70;99.90
22436;DHT22;11385;50.822;4.324;2022-08-03T11:56:43;30.80;99.90
22436;DHT22;11385;50.822;4.324;2022-08-03T11:59:10;30.90;99.90
22436;DHT22;11385;50.822;4.324;2022-08-03T12:01:37;30.90;99.90
22436;DHT22;11385;50.822;4.324;2022-08-03T12:04:06;30.90;99.90
22436;DHT22;11385;50.822;4.324;2022-08-03T12:06:33;30.90;99.90
22436;DHT22;11385;50.822;4.324;2022-08-03T12:09:14;31.00;99.90
22436;DHT22;11385;50.822;4.324;2022-08-03T12:11:36;31.20;99.90
22436;DHT22;11385;50.822;4.324;2022-08-03T12:14:03;31.20;99.90
22436;DHT22;11385;50.822;4.324;2022-08-03T12:16:30;31.10;99.90
22436;DHT22;11385;50.822;4.324;2022-08-03T12:19:00;31.20;99.90
22436;DHT22;11385;50.822;4.324;2022-08-03T12:21:28;31.30;99.90
22436;DHT22;11385;50.822;4.324;2022-08-03T12:23:57;31.40;99.90
22436;DHT22;11385;50.822;4.324;2022-08-03T12:26:25;31.70;99.90
22436;DHT22;11385;50.822;4.324;2022-08-03T12:28:52;31.70;99.90
22436;DHT22;11385;50.822;4.324;2022-08-03T12:31:18;31.70;99.90
22436;DHT22;11385;50.822;4.324;2022-08-03T12:33:55;31.80;99.90
22436;DHT22;11385;50.822;4.324;2022-08-03T12:36:23;31.60;99.90
22436;DHT22;11385;50.822;4.324;2022-08-03T12:38:56;31.60;99.90
22436;DHT22;11385;50.822;4.324;2022-08-03T12:41:31;31.80;99.90
22436;DHT22;11385;50.822;4.324;2022-08-03T12:44:01;32.00;99.90
22436;DHT22;11385;50.822;4.324;2022-08-03T12:46:31;32.00;99.90
22436;DHT22;11385;50.822;4.324;2022-08-03T12:49:03;32.10;99.90
22436;DHT22;11385;50.822;4.324;2022-08-03T12:51:33;32.10;99.90
22436;DHT22;11385;50.822;4.324;2022-08-03T12:54:00;32.20;99.90
22436;DHT22;11385;50.822;4.324;2022-08-03T12:56:28;32.40;99.90
22436;DHT22;11385;50.822;4.324;2022-08-03T12:58:54;32.40;99.90
22436;DHT22;11385;50.822;4.324;2022-08-03T13:01:21;32.20;99.90
22436;DHT22;11385;50.822;4.324;2022-08-03T13:03:50;32.20;99.90
22436;DHT22;11385;50.822;4.324;2022-08-03T13:06:21;32.40;99.90
22436;DHT22;11385;50.822;4.324;2022-08-03T13:08:49;32.20;99.90
22436;DHT22;11385;50.822;4.324;2022-08-03T13:11:19;32.20;99.90
22436;DHT22;11385;50.822;4.324;2022-08-03T13:13:45;32.20;99.90
22436;DHT22;11385;50.822;4.324;2022-08-03T13:16:12;32.30;99.90
22436;DHT22;11385;50.822;4.324;2022-08-03T13:18:39;32.30;99.90
22436;DHT22;11385;50.822;4.324;2022-08-03T13:21:06;32.00;99.90
22436;DHT22;11385;50.822;4.324;2022-08-03T13:23:32;31.80;99.90
22436;DHT22;11385;50.822;4.324;2022-08-03T13:26:00;32.00;99.90
22436;DHT22;11385;50.822;4.324;2022-08-03T13:28:26;32.00;99.90
22436;DHT22;11385;50.822;4.324;2022-08-03T13:30:53;32.10;99.90
22436;DHT22;11385;50.822;4.324;2022-08-03T13:33:20;32.40;99.90
22436;DHT22;11385;50.822;4.324;2022-08-03T13:35:47;32.70;99.90
22436;DHT22;11385;50.822;4.324;2022-08-03T13:38:13;32.90;99.90
22436;DHT22;11385;50.822;4.324;2022-08-03T13:40:40;33.20;99.90
22436;DHT22;11385;50.822;4.324;2022-08-03T13:43:06;33.30;99.90
22436;DHT22;11385;50.822;4.324;2022-08-03T13:45:33;33.30;99.90
22436;DHT22;11385;50.822;4.324;2022-08-03T13:47:59;32.80;99.90
22436;DHT22;11385;50.822;4.324;2022-08-03T13:50:26;32.30;99.90
22436;DHT22;11385;50.822;4.324;2022-08-03T13:52:53;32.30;99.90
22436;DHT22;11385;50.822;4.324;2022-08-03T13:55:19;32.70;99.90
22436;DHT22;11385;50.822;4.324;2022-08-03T13:57:46;32.70;99.90
22436;DHT22;11385;50.822;4.324;2022-08-03T14:00:14;33.00;99.90
22436;DHT22;11385;50.822;4.324;2022-08-03T14:02:41;33.10;99.90
22436;DHT22;11385;50.822;4.324;2022-08-03T14:05:08;33.20;99.90
22436;DHT22;11385;50.822;4.324;2022-08-03T14:07:35;33.10;99.90
22436;DHT22;11385;50.822;4.324;2022-08-03T14:10:02;33.20;99.90
22436;DHT22;11385;50.822;4.324;2022-08-03T14:12:29;32.90;99.90
22436;DHT22;11385;50.822;4.324;2022-08-03T14:14:56;33.00;99.90
22436;DHT22;11385;50.822;4.324;2022-08-03T14:17:23;33.30;99.90
22436;DHT22;11385;50.822;4.324;2022-08-03T14:19:50;33.50;99.90
22436;DHT22;11385;50.822;4.324;2022-08-03T14:22:16;33.30;99.90
22436;DHT22;11385;50.822;4.324;2022-08-03T14:24:43;33.50;99.90
22436;DHT22;11385;50.822;4.324;2022-08-03T14:27:10;33.50;99.90
22436;DHT22;11385;50.822;4.324;2022-08-03T14:29:37;33.50;99.90
22436;DHT22;11385;50.822;4.324;2022-08-03T14:32:03;33.30;99.90
22436;DHT22;11385;50.822;4.324;2022-08-03T14:34:30;33.30;99.90
22436;DHT22;11385;50.822;4.324;2022-08-03T14:36:56;33.20;99.90
22436;DHT22;11385;50.822;4.324;2022-08-03T14:39:23;33.20;99.90
22436;DHT22;11385;50.822;4.324;2022-08-03T14:41:50;33.00;99.90
22436;DHT22;11385;50.822;4.324;2022-08-03T14:44:18;33.30;99.90
22436;DHT22;11385;50.822;4.324;2022-08-03T14:46:45;33.30;99.90
22436;DHT22;11385;50.822;4.324;2022-08-03T14:49:11;33.50;99.90
22436;DHT22;11385;50.822;4.324;2022-08-03T14:51:38;33.60;99.90
22436;DHT22;11385;50.822;4.324;2022-08-03T14:54:05;33.70;99.90
22436;DHT22;11385;50.822;4.324;2022-08-03T14:56:32;33.40;99.90
22436;DHT22;11385;50.822;4.324;2022-08-03T14:58:59;33.30;99.90
22436;DHT22;11385;50.822;4.324;2022-08-03T15:01:25;33.40;99.90
22436;DHT22;11385;50.822;4.324;2022-08-03T15:03:52;33.70;99.90
22436;DHT22;11385;50.822;4.324;2022-08-03T15:06:18;34.00;99.90
22436;DHT22;11385;50.822;4.324;2022-08-03T15:08:45;33.70;99.90
22436;DHT22;11385;50.822;4.324;2022-08-03T15:11:12;33.90;99.90
22436;DHT22;11385;50.822;4.324;2022-08-03T15:13:38;33.90;99.90
22436;DHT22;11385;50.822;4.324;2022-08-03T15:16:05;34.00;99.90
22436;DHT22;11385;50.822;4.324;2022-08-03T15:18:33;34.00;99.90
22436;DHT22;11385;50.822;4.324;2022-08-03T15:21:00;34.10;99.90
22436;DHT22;11385;50.822;4.324;2022-08-03T15:23:27;33.80;99.90
22436;DHT22;11385;50.822;4.324;2022-08-03T15:25:54;34.10;99.90
22436;DHT22;11385;50.822;4.324;2022-08-03T15:28:21;34.20;99.90
22436;DHT22;11385;50.822;4.324;2022-08-03T15:30:51;34.40;99.90
22436;DHT22;11385;50.822;4.324;2022-08-03T15:33:19;34.30;99.90
22436;DHT22;11385;50.822;4.324;2022-08-03T15:35:46;34.10;99.90
22436;DHT22;11385;50.822;4.324;2022-08-03T15:38:13;34.40;99.90
22436;DHT22;11385;50.822;4.324;2022-08-03T15:40:40;34.30;99.90
22436;DHT22;11385;50.822;4.324;2022-08-03T15:43:07;33.90;99.90
22436;DHT22;11385;50.822;4.324;2022-08-03T15:45:34;33.90;99.90
22436;DHT22;11385;50.822;4.324;2022-08-03T15:48:00;33.80;99.90
22436;DHT22;11385;50.822;4.324;2022-08-03T15:50:27;34.20;99.90
22436;DHT22;11385;50.822;4.324;2022-08-03T15:52:55;33.90;99.90